Time;durP1;ratioP1;P1;durP2;ratioP2;P2;SDS_P1;SDS_P2;PMS_P1;PMS_P2;Temp;Humidity;BMP_temperature;BMP_pressure;BME280_temperature;BME280_humidity;BME280_pressure;Samples;Min_cycle;Max_cycle;Signal;HPM_P1;HPM_P2
2022/01/28 00:07:23;;;;;;;3.87;2.37;;;11.70;74.20;;;;;;10188825;29;20259;-85
2022/01/28 00:12:30;;;;;;;3.33;2.57;;;12.20;76.80;;;;;;10180089;29;20622;-86
2022/01/28 00:39:04;;;;;;;3.83;1.23;;;11.60;78.80;;;;;;10169030;29;20263;-86
2022/01/28 00:44:06;;;;;;;4.47;2.77;;;11.90;74.60;;;;;;10169116;29;20636;-86
2022/01/28 00:49:10;;;;;;;5.13;1.83;;;12.10;76.20;;;;;;10170004;29;20227;-86
2022/01/28 00:54:13;;;;;;;4.93;1.80;;;12.30;74.60;;;;;;10129802;29;20208;-87
2022/01/28 00:59:15;;;;;;;6.17;1.80;;;11.90;76.20;;;;;;10150505;29;20239;-86
2022/01/28 01:04:18;;;;;;;4.43;1.90;;;11.10;75.50;;;;;;10169381;29;20310;-87
2022/01/28 01:09:20;;;;;;;3.97;1.73;;;11.50;75.30;;;;;;10168911;29;20259;-87
2022/01/28 01:14:23;;;;;;;9.67;2.53;;;11.70;76.30;;;;;;10168004;29;20276;-86
2022/01/28 01:19:29;;;;;;;7.40;2.00;;;11.20;77.20;;;;;;10169065;29;20247;-86
2022/01/28 01:24:36;;;;;;;3.53;1.50;;;11.40;78.60;;;;;;10167218;29;20231;-86
2022/01/28 01:29:43;;;;;;;3.13;1.90;;;11.00;76.70;;;;;;10168870;29;20640;-86
2022/01/28 01:34:46;;;;;;;6.60;1.60;;;11.90;77.30;;;;;;10168042;29;20365;-86
2022/01/28 01:39:51;;;;;;;5.03;1.10;;;10.50;79.00;;;;;;10169125;29;20667;-86
2022/01/28 01:55:47;;;;;;;2.67;1.10;;;11.90;77.90;;;;;;10176804;29;20267;-86
2022/01/28 02:00:50;;;;;;;1.90;1.30;;;10.90;77.90;;;;;;10175523;29;20708;-86
2022/01/28 02:05:56;;;;;;;3.83;1.43;;;11.40;80.40;;;;;;10178834;29;20275;-86
2022/01/28 02:10:59;;;;;;;3.20;1.30;;;11.00;79.60;;;;;;10175029;29;20291;-86
2022/01/28 02:16:02;;;;;;;4.40;1.60;;;11.40;80.80;;;;;;10174237;29;20271;-86
2022/01/28 02:21:08;;;;;;;3.90;0.90;;;11.20;80.50;;;;;;10175657;29;20314;-85
2022/01/28 02:26:14;;;;;;;2.73;1.00;;;11.00;76.80;;;;;;10174222;29;20251;-86
2022/01/28 02:31:21;;;;;;;5.53;1.60;;;10.90;80.20;;;;;;10144330;29;20244;-87
2022/01/28 02:36:25;;;;;;;1.47;0.97;;;11.10;80.70;;;;;;10134773;29;20204;-87
2022/01/28 02:41:32;;;;;;;2.83;1.23;;;10.40;84.00;;;;;;10150054;29;20250;-87
2022/01/28 02:46:38;;;;;;;2.83;0.80;;;11.20;78.70;;;;;;10174540;29;20239;-87
2022/01/28 02:51:43;;;;;;;1.73;0.83;;;11.30;77.60;;;;;;10172823;29;20235;-86
2022/01/28 02:56:51;;;;;;;1.80;0.87;;;11.40;79.50;;;;;;10174340;29;20365;-87
2022/01/28 03:01:53;;;;;;;5.83;1.37;;;10.90;80.50;;;;;;10172339;29;20279;-86
2022/01/28 03:06:56;;;;;;;3.43;1.70;;;9.50;79.10;;;;;;10172493;29;20263;-87
2022/01/28 03:12:12;;;;;;;5.97;1.70;;;9.60;82.80;;;;;;10172611;29;20998;-86
2022/01/28 03:17:49;;;;;;;2.90;1.17;;;10.30;82.30;;;;;;10171814;29;20243;-86
2022/01/28 03:22:38;;;;;;;9.27;2.90;;;11.10;80.60;;;;;;10171636;29;20317;-86
2022/01/28 03:27:50;;;;;;;9.70;2.70;;;9.90;84.00;;;;;;10172944;29;20279;-86
2022/01/28 03:32:53;;;;;;;6.83;2.10;;;10.10;80.00;;;;;;10155930;29;20231;-86
2022/01/28 03:38:07;;;;;;;9.83;2.40;;;9.40;83.40;;;;;;10171375;29;20231;-87
2022/01/28 03:43:10;;;;;;;6.10;1.93;;;9.00;88.30;;;;;;10172594;29;20325;-86
2022/01/28 03:48:12;;;;;;;3.93;2.00;;;10.40;85.10;;;;;;10170967;29;20231;-86
2022/01/28 03:53:14;;;;;;;3.83;2.07;;;10.50;83.00;;;;;;10172598;29;20266;-86
2022/01/28 03:58:17;;;;;;;5.33;1.60;;;10.90;82.20;;;;;;10170829;29;20212;-86
2022/01/28 04:13:50;;;;;;;5.77;1.60;;;11.20;80.70;;;;;;10169923;29;20243;-86
2022/01/28 04:18:52;;;;;;;8.33;2.23;;;9.90;86.00;;;;;;10170762;29;20669;-87
2022/01/28 04:23:55;;;;;;;8.37;2.13;;;10.10;80.00;;;;;;10170674;29;20645;-87
2022/01/28 04:28:57;;;;;;;11.73;2.50;;;8.50;84.00;;;;;;10169267;29;20259;-87
2022/01/28 04:34:01;;;;;;;9.53;2.30;;;8.50;86.80;;;;;;10170671;29;20232;-86
2022/01/28 04:39:16;;;;;;;11.53;1.90;;;9.90;80.40;;;;;;10168273;29;20239;-87
2022/01/28 04:44:25;;;;;;;6.57;1.60;;;8.20;87.30;;;;;;10170024;29;20278;-86
2022/01/28 04:49:51;;;;;;;6.53;2.03;;;10.20;84.00;;;;;;10170336;29;20263;-86
2022/01/28 05:00:10;;;;;;;10.13;3.27;;;8.90;88.40;;;;;;10168261;29;20315;-86
2022/01/28 05:05:38;;;;;;;17.23;3.03;;;7.30;90.80;;;;;;10168607;29;20655;-86
2022/01/28 05:26:52;;;;;;;15.13;3.67;;;7.30;92.60;;;;;;10047838;29;20638;-87
2022/01/28 05:31:55;;;;;;;8.33;3.07;;;6.80;94.30;;;;;;10047560;29;20345;-86
2022/01/28 05:36:57;;;;;;;14.77;4.20;;;8.60;93.20;;;;;;10047198;29;20342;-87
2022/01/28 05:42:00;;;;;;;8.47;2.37;;;6.10;96.90;;;;;;10031817;29;20253;-86
2022/01/28 05:47:03;;;;;;;9.43;2.50;;;7.20;96.60;;;;;;10047742;29;20337;-86
2022/01/28 05:52:06;;;;;;;12.10;3.43;;;7.20;98.10;;;;;;10032706;29;20763;-87
2022/01/28 05:57:09;;;;;;;10.63;2.70;;;7.20;95.30;;;;;;10126067;29;20231;-86
2022/01/28 06:02:11;;;;;;;7.07;2.43;;;7.60;94.10;;;;;;10168073;29;20635;-86
2022/01/28 06:07:14;;;;;;;12.40;4.27;;;7.70;96.70;;;;;;10166498;29;20479;-86
2022/01/28 06:12:17;;;;;;;10.17;2.03;;;8.50;90.00;;;;;;10167502;29;20228;-86
2022/01/28 06:17:19;;;;;;;11.37;2.80;;;6.60;98.50;;;;;;10171334;29;20286;-86
2022/01/28 06:22:21;;;;;;;9.30;2.77;;;8.30;90.30;;;;;;10185016;29;20271;-86
2022/01/28 06:27:24;;;;;;;14.13;2.77;;;5.50;99.70;;;;;;10167713;29;20248;-86
2022/01/28 06:32:27;;;;;;;15.70;3.83;;;4.90;99.90;;;;;;10192114;29;20264;-86
2022/01/28 06:37:29;;;;;;;12.73;4.10;;;4.90;99.90;;;;;;10198615;29;20704;-86
2022/01/28 06:42:32;;;;;;;11.47;2.77;;;5.50;99.30;;;;;;10193248;29;20252;-86
2022/01/28 06:47:35;;;;;;;12.70;2.80;;;4.90;99.90;;;;;;10193324;29;20248;-86
2022/01/28 06:52:38;;;;;;;14.03;3.07;;;6.00;99.80;;;;;;10173837;29;20223;-86
2022/01/28 06:57:41;;;;;;;20.13;3.40;;;6.50;96.80;;;;;;10188706;29;20843;-87
2022/01/28 07:02:44;;;;;;;12.77;3.13;;;5.40;99.90;;;;;;10172310;29;20706;-86
2022/01/28 07:07:47;;;;;;;8.33;2.87;;;5.00;99.90;;;;;;10156848;29;20791;-86
2022/01/28 07:12:53;;;;;;;13.90;4.40;;;5.90;98.90;;;;;;10171887;29;20259;-86
2022/01/28 07:17:58;;;;;;;13.20;2.70;;;5.30;99.90;;;;;;10171423;29;20315;-86
2022/01/28 07:23:01;;;;;;;14.07;3.33;;;5.70;98.80;;;;;;10171921;29;20277;-86
2022/01/28 07:28:03;;;;;;;9.97;2.97;;;5.40;99.90;;;;;;10172875;29;20235;-86
2022/01/28 07:33:08;;;;;;;17.03;3.27;;;5.70;99.90;;;;;;10172968;29;20684;-86
2022/01/28 07:38:10;;;;;;;12.20;2.70;;;4.90;99.90;;;;;;10172526;29;20267;-86
2022/01/28 07:43:13;;;;;;;10.87;2.90;;;5.00;99.90;;;;;;10171044;29;20247;-86
2022/01/28 07:48:15;;;;;;;22.97;3.47;;;4.90;99.90;;;;;;10170949;29;20223;-86
2022/01/28 07:53:18;;;;;;;20.50;3.50;;;5.10;99.90;;;;;;10171254;29;20235;-86
2022/01/28 07:58:20;;;;;;;12.30;3.13;;;5.50;99.90;;;;;;10171445;29;20680;-86
2022/01/28 08:03:23;;;;;;;10.27;2.73;;;6.60;96.70;;;;;;10154438;29;20315;-86
2022/01/28 08:08:25;;;;;;;18.30;2.67;;;5.20;99.90;;;;;;10171133;29;20279;-86
2022/01/28 08:13:28;;;;;;;11.07;3.97;;;5.30;99.90;;;;;;10170364;29;20231;-86
2022/01/28 08:18:30;;;;;;;15.00;3.50;;;5.80;99.90;;;;;;10170403;29;20239;-85
2022/01/28 08:29:11;;;;;;;15.77;3.60;;;4.60;99.90;;;;;;10537633;23;10000190;-87
2022/01/28 08:34:14;;;;;;;20.37;3.33;;;4.70;99.90;;;;;;10137811;29;20307;-86
2022/01/28 08:39:17;;;;;;;15.17;3.07;;;5.70;99.90;;;;;;10198088;29;20239;-87
2022/01/28 08:44:19;;;;;;;8.17;2.80;;;6.00;99.90;;;;;;10185312;29;20255;-86
2022/01/28 08:49:22;;;;;;;5.97;2.07;;;6.50;99.90;;;;;;10151529;29;20306;-86
2022/01/28 08:54:24;;;;;;;4.43;2.60;;;6.60;99.90;;;;;;10169212;29;20680;-86
2022/01/28 08:59:27;;;;;;;10.70;3.40;;;5.30;99.90;;;;;;10169496;29;20761;-86
2022/01/28 09:04:29;;;;;;;13.57;3.40;;;4.70;99.90;;;;;;10153975;29;20258;-86
2022/01/28 09:09:32;;;;;;;13.57;3.80;;;4.40;99.90;;;;;;10192776;29;20298;-86
2022/01/28 09:14:34;;;;;;;13.37;4.70;;;4.60;99.90;;;;;;10176759;29;20247;-86
2022/01/28 09:19:37;;;;;;;9.67;2.90;;;4.80;99.90;;;;;;10163975;29;20635;-86
2022/01/28 09:24:40;;;;;;;9.00;2.60;;;5.30;99.90;;;;;;10150930;29;20671;-86
2022/01/28 09:29:42;;;;;;;18.77;4.07;;;5.10;99.90;;;;;;10135975;29;20262;-86
2022/01/28 09:34:44;;;;;;;11.77;3.23;;;4.80;99.90;;;;;;10135864;29;20207;-86
2022/01/28 09:39:51;;;;;;;20.37;4.80;;;4.70;99.90;;;;;;10168255;29;20291;-87
2022/01/28 09:44:54;;;;;;;18.00;6.13;;;4.70;99.90;;;;;;10150808;29;20689;-86
2022/01/28 09:49:58;;;;;;;19.80;5.00;;;5.00;99.90;;;;;;10134442;29;20231;-86
2022/01/28 09:55:01;;;;;;;9.73;2.80;;;5.10;99.90;;;;;;10150909;29;20235;-86
2022/01/28 10:00:05;;;;;;;5.47;2.90;;;4.80;99.90;;;;;;10150167;29;20680;-86
2022/01/28 10:05:25;;;;;;;8.73;3.33;;;5.40;99.90;;;;;;10159226;29;20258;-86
2022/01/28 10:11:01;;;;;;;10.43;3.70;;;5.10;99.90;;;;;;10159005;29;20227;-86
2022/01/28 10:16:28;;;;;;;12.63;3.00;;;5.30;99.90;;;;;;10156751;29;20314;-86
2022/01/28 10:21:32;;;;;;;8.57;3.23;;;4.90;99.90;;;;;;10153649;29;20325;-86
2022/01/28 10:26:54;;;;;;;9.83;2.87;;;5.20;99.90;;;;;;10128710;29;20220;-86
2022/01/28 10:32:05;;;;;;;10.87;3.40;;;5.40;99.90;;;;;;10141033;29;20234;-86
2022/01/28 10:37:21;;;;;;;6.33;3.10;;;4.80;99.90;;;;;;10174597;29;20650;-86
2022/01/28 10:42:41;;;;;;;13.13;3.67;;;4.80;99.90;;;;;;10158447;29;20310;-86
2022/01/28 10:47:49;;;;;;;6.53;2.60;;;4.70;99.90;;;;;;10174032;29;20669;-86
2022/01/28 10:53:19;;;;;;;6.83;2.00;;;5.60;99.90;;;;;;10157587;29;20248;-86
2022/01/28 10:58:24;;;;;;;6.33;1.83;;;5.10;99.90;;;;;;10156812;29;20246;-86
2022/01/28 11:03:28;;;;;;;2.43;1.33;;;5.20;99.90;;;;;;10172650;29;20314;-86
2022/01/28 11:08:32;;;;;;;8.50;1.70;;;5.80;99.90;;;;;;10173143;29;20254;-86
2022/01/28 11:13:37;;;;;;;5.63;1.70;;;5.30;99.90;;;;;;10158229;29;20215;-85
2022/01/28 11:18:40;;;;;;;2.97;1.33;;;4.90;99.90;;;;;;10157689;29;20600;-86
2022/01/28 11:24:13;;;;;;;6.63;1.57;;;5.40;99.90;;;;;;10158168;29;20263;-87
2022/01/28 11:29:24;;;;;;;4.97;1.50;;;5.50;99.90;;;;;;10160167;29;20615;-86
2022/01/28 11:34:28;;;;;;;5.20;1.53;;;5.90;99.50;;;;;;10176932;29;20208;-86
2022/01/28 11:39:37;;;;;;;5.00;2.50;;;5.60;99.90;;;;;;10158950;29;20273;-86
2022/01/28 11:44:51;;;;;;;4.30;1.40;;;5.70;98.10;;;;;;10159793;29;20286;-86
2022/01/28 11:50:08;;;;;;;10.50;1.77;;;6.10;97.50;;;;;;10177682;29;20583;-86
2022/01/28 11:55:14;;;;;;;6.40;1.83;;;5.60;99.30;;;;;;10159856;29;20208;-86
2022/01/28 12:00:20;;;;;;;9.67;1.57;;;6.10;98.10;;;;;;10179270;29;20240;-86
2022/01/28 12:05:31;;;;;;;2.23;1.17;;;5.80;97.70;;;;;;10177549;29;20282;-86
2022/01/28 12:10:41;;;;;;;4.27;1.27;;;5.70;96.60;;;;;;10172834;29;20207;-86
2022/01/28 12:16:10;;;;;;;4.20;1.87;;;5.60;98.10;;;;;;10188555;29;20180;-87
2022/01/28 12:21:15;;;;;;;2.20;1.20;;;6.00;98.70;;;;;;10169033;29;20217;-86
2022/01/28 12:26:19;;;;;;;2.70;1.70;;;6.50;98.70;;;;;;10216299;28;20184;-86
2022/01/28 12:31:29;;;;;;;4.80;1.87;;;6.80;99.00;;;;;;10223972;28;20220;-87
2022/01/28 12:36:34;;;;;;;2.40;1.50;;;6.90;99.90;;;;;;10192130;28;20187;-87
2022/01/28 12:41:49;;;;;;;3.50;0.80;;;5.90;97.80;;;;;;10192747;28;20232;-87
2022/01/28 12:46:57;;;;;;;1.47;0.90;;;5.40;98.80;;;;;;10207659;28;20207;-87
2022/01/28 12:52:08;;;;;;;2.87;1.20;;;5.40;98.70;;;;;;10226918;28;20207;-87
2022/01/28 12:57:16;;;;;;;3.83;1.20;;;5.80;99.90;;;;;;10225757;28;20180;-87
2022/01/28 13:02:19;;;;;;;1.57;1.03;;;5.60;97.80;;;;;;10208899;28;20211;-87
2022/01/28 13:12:32;;;;;;;11.13;4.83;;;5.50;99.00;;;;;;10225777;28;20187;-86
2022/01/28 13:17:36;;;;;;;27.80;14.40;;;5.60;97.10;;;;;;10194158;28;20212;-86
2022/01/28 13:22:39;;;;;;;4.50;2.10;;;5.50;96.60;;;;;;10209692;28;20219;-87
2022/01/28 13:27:49;;;;;;;3.17;1.60;;;5.20;96.90;;;;;;10187392;28;20238;-86
2022/01/28 13:33:00;;;;;;;1.53;0.90;;;4.90;96.60;;;;;;10148074;29;20238;-86
2022/01/28 13:38:13;;;;;;;4.53;1.83;;;4.10;99.90;;;;;;10144524;29;20215;-86
2022/01/28 13:43:21;;;;;;;5.47;2.20;;;4.00;99.90;;;;;;10159000;29;20231;-86
2022/01/28 13:48:33;;;;;;;4.03;1.97;;;4.60;99.90;;;;;;10166530;29;20193;-86
2022/01/28 13:59:29;;;;;;;7.83;3.03;;;4.70;99.00;;;;;;10162361;29;20219;-86
2022/01/28 14:04:38;;;;;;;9.83;3.17;;;4.70;98.30;;;;;;10145689;29;20219;-87
2022/01/28 14:09:51;;;;;;;9.57;2.97;;;4.70;97.30;;;;;;10153303;29;20680;-86
2022/01/28 14:14:59;;;;;;;3.53;2.10;;;4.60;96.50;;;;;;10151311;29;20762;-86
2022/01/28 14:20:02;;;;;;;6.27;2.27;;;4.50;96.20;;;;;;10151224;29;20203;-86
2022/01/28 14:25:05;;;;;;;5.90;3.80;;;4.60;97.20;;;;;;10167441;29;20266;-86
2022/01/28 14:30:21;;;;;;;10.00;3.87;;;5.00;92.70;;;;;;10117013;29;20262;-86
2022/01/28 14:35:23;;;;;;;8.10;3.23;;;4.80;94.00;;;;;;10116171;29;20262;-87
2022/01/28 14:40:26;;;;;;;10.93;4.30;;;4.80;94.40;;;;;;10167267;29;20298;-85
2022/01/28 14:45:30;;;;;;;10.10;7.30;;;5.10;93.50;;;;;;10150005;29;20644;-86
2022/01/28 14:50:34;;;;;;;3.83;1.97;;;4.90;92.00;;;;;;10172377;29;20241;-86
2022/01/28 14:55:40;;;;;;;13.83;1.70;;;4.30;92.50;;;;;;10173949;29;20247;-86
2022/01/28 15:00:43;;;;;;;6.53;3.67;;;4.10;93.30;;;;;;10173552;29;20248;-86
2022/01/28 15:05:46;;;;;;;7.23;3.30;;;4.20;90.90;;;;;;10162717;29;20258;-86
2022/01/28 15:10:48;;;;;;;9.20;3.90;;;3.80;90.90;;;;;;10154728;29;20661;-85
2022/01/28 15:15:53;;;;;;;3.27;1.73;;;3.60;91.30;;;;;;10156741;29;20853;-85
2022/01/28 15:20:56;;;;;;;9.80;3.93;;;3.70;90.70;;;;;;10141023;29;20294;-86
2022/01/28 15:25:59;;;;;;;15.50;6.03;;;3.40;91.40;;;;;;10151819;29;20254;-86
2022/01/28 15:36:22;;;;;;;8.60;2.60;;;3.90;90.80;;;;;;10122494;29;20216;-87
2022/01/28 15:41:25;;;;;;;7.87;3.17;;;3.70;87.30;;;;;;10144838;29;20577;-87
2022/01/28 15:46:28;;;;;;;9.13;4.20;;;3.50;88.60;;;;;;10176533;29;20230;-87
2022/01/28 15:51:31;;;;;;;7.77;3.53;;;3.50;89.20;;;;;;10151545;29;20203;-87
2022/01/28 15:56:33;;;;;;;5.97;2.30;;;3.40;90.80;;;;;;10156679;29;20219;-87
2022/01/28 16:01:36;;;;;;;11.37;5.57;;;4.00;86.70;;;;;;10157957;29;20215;-87
2022/01/28 16:06:39;;;;;;;13.10;5.47;;;3.40;90.30;;;;;;10158355;29;20231;-87
2022/01/28 16:11:48;;;;;;;5.57;2.80;;;3.40;90.30;;;;;;10158295;29;20207;-87
2022/01/28 16:22:26;;;;;;;8.90;4.63;;;3.80;91.50;;;;;;10076322;29;20255;-86
2022/01/28 16:27:29;;;;;;;9.33;2.90;;;3.20;90.60;;;;;;10089876;29;20288;-88
2022/01/28 16:32:32;;;;;;;9.40;2.50;;;3.50;90.80;;;;;;10079605;29;20273;-88
2022/01/28 16:37:35;;;;;;;7.80;3.97;;;3.00;92.20;;;;;;10077293;29;20224;-88
2022/01/28 16:42:51;;;;;;;6.17;4.00;;;2.80;91.90;;;;;;10087907;29;20699;-88
2022/01/28 16:47:53;;;;;;;7.47;2.77;;;2.90;92.00;;;;;;9734596;29;9999598;-88
2022/01/28 16:52:56;;;;;;;8.90;3.70;;;2.70;91.40;;;;;;10085623;29;20237;-88
2022/01/28 16:57:58;;;;;;;11.97;4.83;;;2.40;91.70;;;;;;10112321;29;20745;-88
2022/01/28 17:03:01;;;;;;;7.90;4.13;;;2.40;91.50;;;;;;10153540;29;20224;-88
2022/01/28 17:08:04;;;;;;;10.33;2.93;;;2.50;91.10;;;;;;10150990;29;20224;-88
2022/01/28 17:13:08;;;;;;;5.43;2.87;;;2.60;91.00;;;;;;10164810;29;20683;-88
2022/01/28 17:18:11;;;;;;;7.23;2.93;;;2.60;90.30;;;;;;10165027;29;20237;-88
2022/01/28 17:23:14;;;;;;;5.90;3.37;;;2.70;90.00;;;;;;10165955;29;20248;-88
2022/01/28 17:28:17;;;;;;;8.60;4.40;;;2.60;90.00;;;;;;10148221;29;20302;-88
2022/01/28 17:33:20;;;;;;;6.40;3.10;;;2.50;90.60;;;;;;10148940;29;20227;-88
2022/01/28 17:38:25;;;;;;;9.57;5.27;;;2.70;91.20;;;;;;10165085;29;20640;-87
2022/01/28 17:43:28;;;;;;;8.37;4.70;;;2.30;91.40;;;;;;10130714;29;20327;-88
2022/01/28 17:48:31;;;;;;;11.43;5.70;;;2.20;91.90;;;;;;10164818;29;20236;-88
2022/01/28 17:53:34;;;;;;;12.93;7.23;;;2.30;94.50;;;;;;10148121;29;20236;-88
2022/01/28 17:58:36;;;;;;;12.80;6.93;;;2.00;93.90;;;;;;10131424;29;20302;-88
2022/01/28 18:03:39;;;;;;;7.43;3.50;;;1.80;94.50;;;;;;10149357;29;20313;-88
2022/01/28 18:08:42;;;;;;;9.80;4.30;;;2.50;95.50;;;;;;10143124;29;20229;-88
2022/01/28 18:13:44;;;;;;;12.63;5.27;;;2.00;95.10;;;;;;10147555;29;20732;-88
2022/01/28 18:18:48;;;;;;;12.10;6.00;;;1.70;95.30;;;;;;10146839;29;20237;-88
2022/01/28 18:23:51;;;;;;;6.63;4.90;;;1.60;95.90;;;;;;10124051;29;20327;-88
2022/01/28 18:28:54;;;;;;;11.50;5.90;;;1.50;95.50;;;;;;10136365;29;20328;-88
2022/01/28 18:33:56;;;;;;;11.63;6.60;;;1.50;95.60;;;;;;10155163;29;20283;-88
2022/01/28 18:39:01;;;;;;;7.83;3.90;;;1.50;95.70;;;;;;10171716;29;20229;-88
2022/01/28 18:44:15;;;;;;;10.70;5.70;;;1.40;98.00;;;;;;10169681;29;20256;-88
2022/01/28 18:49:17;;;;;;;14.77;7.37;;;1.70;98.90;;;;;;10144859;29;20257;-88
2022/01/28 18:54:20;;;;;;;11.87;6.10;;;1.20;96.90;;;;;;10130766;29;20241;-87
2022/01/28 18:59:22;;;;;;;14.50;6.53;;;1.40;99.90;;;;;;10113776;29;20279;-87
2022/01/28 19:04:25;;;;;;;8.87;4.80;;;1.40;97.10;;;;;;10143940;29;20296;-88
2022/01/28 19:09:27;;;;;;;14.40;6.67;;;1.30;96.70;;;;;;10153546;29;20633;-88
2022/01/28 19:14:30;;;;;;;16.23;8.17;;;1.20;97.60;;;;;;10170721;29;20245;-87
2022/01/28 19:19:32;;;;;;;20.70;10.37;;;0.80;99.20;;;;;;10145078;29;20230;-87
2022/01/28 19:24:35;;;;;;;29.40;12.20;;;0.60;99.90;;;;;;10156137;29;20322;-87
2022/01/28 19:29:38;;;;;;;19.97;8.67;;;1.30;99.90;;;;;;10163531;29;20256;-87
2022/01/28 19:34:44;;;;;;;8.27;5.00;;;1.10;99.90;;;;;;10164843;29;20250;-87
2022/01/28 19:39:47;;;;;;;11.00;4.53;;;1.40;99.60;;;;;;10165735;29;20265;-87
2022/01/28 19:44:49;;;;;;;9.53;4.87;;;1.50;99.90;;;;;;10151861;29;20265;-87
2022/01/28 19:49:52;;;;;;;10.10;4.47;;;1.50;99.90;;;;;;10151394;29;20255;-87
2022/01/28 19:54:55;;;;;;;8.00;4.03;;;1.10;99.60;;;;;;10138880;29;20240;-86
2022/01/28 19:59:57;;;;;;;8.67;4.17;;;1.70;99.90;;;;;;10158018;29;20239;-87
2022/01/28 20:05:00;;;;;;;9.43;3.53;;;0.90;99.90;;;;;;10142725;29;20327;-87
2022/01/28 20:10:09;;;;;;;10.87;5.90;;;0.50;99.90;;;;;;10165216;29;20593;-87
2022/01/28 20:15:12;;;;;;;8.60;4.20;;;0.50;99.90;;;;;;9790565;29;10000250;-87
2022/01/28 20:20:15;;;;;;;8.73;3.97;;;0.50;99.90;;;;;;10137467;29;20247;-86
2022/01/28 20:25:20;;;;;;;8.23;4.03;;;0.40;99.90;;;;;;10149742;29;20304;-86
2022/01/28 20:30:24;;;;;;;10.10;4.77;;;0.50;99.90;;;;;;10128256;29;20296;-86
2022/01/28 20:35:26;;;;;;;9.07;5.63;;;0.40;99.90;;;;;;10118085;29;20243;-87
2022/01/28 20:40:31;;;;;;;12.10;5.77;;;0.50;99.90;;;;;;10158352;29;20621;-87
2022/01/28 20:45:34;;;;;;;15.50;8.33;;;0.40;99.90;;;;;;10150472;29;20264;-86
2022/01/28 20:50:36;;;;;;;18.30;8.83;;;0.60;99.90;;;;;;10117831;29;20245;-86
2022/01/28 20:55:39;;;;;;;17.70;7.50;;;0.10;99.90;;;;;;10124057;29;20700;-87
2022/01/28 21:00:42;;;;;;;20.13;9.63;;;0.00;99.90;;;;;;10140948;29;20302;-87
2022/01/28 21:05:44;;;;;;;19.83;9.53;;;0.10;99.90;;;;;;10145166;29;20299;-87
2022/01/28 21:10:49;;;;;;;18.33;7.23;;;0.10;99.90;;;;;;10148018;29;20231;-88
2022/01/28 21:15:52;;;;;;;16.13;7.80;;;0.40;99.90;;;;;;10118653;29;20765;-87
2022/01/28 21:20:54;;;;;;;11.30;6.37;;;0.30;99.90;;;;;;10140741;29;20751;-86
2022/01/28 21:25:57;;;;;;;16.33;5.73;;;1.10;99.90;;;;;;10147101;29;20346;-85
2022/01/28 21:31:01;;;;;;;20.13;6.73;;;0.70;99.90;;;;;;10141082;29;20313;-86
2022/01/28 21:36:04;;;;;;;16.87;6.40;;;0.80;99.90;;;;;;10165409;29;20280;-86
2022/01/28 21:41:07;;;;;;;10.10;5.80;;;1.30;99.90;;;;;;10148106;29;20789;-87
2022/01/28 21:46:09;;;;;;;16.07;5.87;;;1.40;99.90;;;;;;10145354;29;20324;-86
2022/01/28 21:51:12;;;;;;;13.10;6.20;;;0.90;99.90;;;;;;10148610;29;20236;-86
2022/01/28 21:56:14;;;;;;;15.37;6.93;;;1.00;99.80;;;;;;10167397;29;20227;-87
2022/01/28 22:01:18;;;;;;;10.03;5.30;;;0.50;99.90;;;;;;10157709;29;20710;-87
2022/01/28 22:06:21;;;;;;;10.17;5.43;;;0.70;99.90;;;;;;10170980;29;20269;-87
2022/01/28 22:11:24;;;;;;;10.23;5.97;;;1.10;99.90;;;;;;10172773;29;20794;-87
2022/01/28 22:16:26;;;;;;;17.50;7.37;;;0.60;99.90;;;;;;9825924;29;10000274;-87
2022/01/28 22:21:31;;;;;;;14.57;7.50;;;0.30;99.90;;;;;;10152194;29;20235;-87
2022/01/28 22:26:33;;;;;;;12.43;5.70;;;0.20;99.90;;;;;;10152147;29;20699;-87
2022/01/28 22:31:36;;;;;;;16.03;6.53;;;0.50;99.90;;;;;;10180591;29;20269;-87
2022/01/28 22:36:39;;;;;;;14.30;5.63;;;0.60;99.90;;;;;;10141513;29;20295;-86
2022/01/28 22:41:41;;;;;;;9.67;4.73;;;1.10;98.70;;;;;;10172613;29;20260;-87
2022/01/28 22:46:44;;;;;;;7.57;4.73;;;0.80;99.90;;;;;;10139054;29;20280;-86
2022/01/28 22:51:46;;;;;;;12.33;5.97;;;0.60;99.90;;;;;;10154022;29;20233;-86
2022/01/28 22:56:49;;;;;;;11.63;5.10;;;0.40;99.90;;;;;;10153394;29;20752;-87
2022/01/28 23:01:51;;;;;;;12.20;4.63;;;2.30;99.90;;;;;;10154136;29;20223;-86
2022/01/28 23:06:57;;;;;;;11.87;6.50;;;0.80;97.90;;;;;;10154123;29;20806;-86
2022/01/28 23:12:00;;;;;;;14.50;6.70;;;1.90;95.70;;;;;;10138263;29;21059;-87
2022/01/28 23:17:03;;;;;;;11.53;5.17;;;;;;;;;;10154576;29;20234;-87
2022/01/28 23:22:06;;;;;;;9.57;5.50;;;3.70;99.90;;;;;;10172801;29;20302;-86
2022/01/28 23:27:08;;;;;;;14.50;6.83;;;4.60;99.90;;;;;;10163553;29;20251;-87
2022/01/28 23:32:13;;;;;;;15.30;7.00;;;3.60;94.40;;;;;;10100595;29;20240;-87
2022/01/28 23:37:16;;;;;;;20.13;7.60;;;3.80;94.10;;;;;;10115644;29;20566;-86
2022/01/28 23:42:39;;;;;;;17.83;7.87;;;3.50;94.20;;;;;;10121732;29;20234;-87
2022/01/28 23:47:41;;;;;;;15.43;6.50;;;2.30;91.60;;;;;;10130338;29;20675;-87
2022/01/28 23:52:44;;;;;;;18.67;7.77;;;1.60;95.60;;;;;;10130713;29;20759;-87
2022/01/28 23:57:46;;;;;;;10.53;5.37;;;1.80;95.60;;;;;;10110214;29;20231;-87
